KIJX/IJX METAR and TAF weather

Enter ICAO airport designator
Station Type Date Time Source
KIJX METAR 2022/11/26 09:35 UTC NOAA

KIJX 260935Z AUTO 00000KT 10SM CLR M03/M04 A3016 RMK AO2 T10261040


Station Type Date Time Source
KIJX Decoded METAR 2022/11/26 09:35 UTC NOAA

Jacksonville, Jacksonville Municipal Airport, IL, United States (KIJX) 39-46-27N 090-14-19W
Nov 26, 2022 - 04:35 AM EST / 2022.11.26 0935 UTC
Wind: Calm:0
Visibility: 10 mile(s):0
Sky conditions: clear
Temperature: 27.3 F (-2.6 C)
Dew Point: 24.8 F (-4.0 C)
Relative Humidity: 90%
Pressure (altimeter): 30.16 in. Hg (1021 hPa)
ob: KIJX 260935Z AUTO 00000KT 10SM CLR M03/M04 A3016 RMK AO2 T10261040
cycle: 9

Station Type Date Time Source
KIJX TAF UTC NOAA

Error!

Example: see airport list